createdAt,value
2023-04-03T00:02:02.217Z,2.42
2023-04-03T00:04:28.941Z,2.08
2023-04-03T00:06:55.691Z,2.65
2023-04-03T00:09:22.328Z,2.15
2023-04-03T00:11:49.056Z,2.63
2023-04-03T00:14:15.768Z,2.78
2023-04-03T00:16:42.461Z,2.33
2023-04-03T00:19:09.315Z,1.52
2023-04-03T00:21:36.784Z,1.98
2023-04-03T00:24:03.731Z,2.55
2023-04-03T00:26:30.492Z,2.03
2023-04-03T00:28:57.300Z,1.58
2023-04-03T00:31:24.011Z,1.60
2023-04-03T00:33:50.744Z,1.80
2023-04-03T00:36:17.436Z,1.75
2023-04-03T00:38:44.195Z,1.63
2023-04-03T00:41:10.764Z,1.67
2023-04-03T00:43:37.500Z,1.58
2023-04-03T00:46:04.669Z,2.05
2023-04-03T00:48:42.373Z,2.22
2023-04-03T00:51:14.965Z,2.20
2023-04-03T00:53:47.572Z,1.70
2023-04-03T00:56:18.235Z,2.30
2023-04-03T00:59:16.108Z,1.92
2023-04-03T01:01:43.788Z,2.15
2023-04-03T01:04:46.863Z,1.80
2023-04-03T01:07:19.353Z,2.40
2023-04-03T01:09:48.083Z,1.85
2023-04-03T01:12:18.765Z,2.67
2023-04-03T01:14:47.392Z,1.60
2023-04-03T01:17:34.494Z,2.70
2023-04-03T01:20:18.862Z,2.45
2023-04-03T01:22:59.986Z,3.25
2023-04-03T01:25:27.331Z,1.65
2023-04-03T01:27:53.951Z,2.55
2023-04-03T01:30:24.757Z,1.92
2023-04-03T01:32:51.506Z,2.80
2023-04-03T01:35:18.110Z,2.20
2023-04-03T01:37:44.717Z,1.65
2023-04-03T01:40:11.731Z,1.73
2023-04-03T01:42:38.364Z,1.85
2023-04-03T01:45:05.481Z,1.90
2023-04-03T01:47:32.250Z,2.10
2023-04-03T01:49:58.824Z,1.83
2023-04-03T01:52:25.526Z,1.75
2023-04-03T01:54:52.224Z,2.08
2023-04-03T01:57:18.941Z,2.30
2023-04-03T01:59:45.649Z,3.88
2023-04-03T02:02:13.477Z,2.38
2023-04-03T02:04:40.072Z,2.17
2023-04-03T02:07:06.654Z,2.38
2023-04-03T02:09:33.278Z,2.05
2023-04-03T02:11:59.938Z,2.13
2023-04-03T02:14:28.565Z,3.55
2023-04-03T02:16:55.543Z,3.63
2023-04-03T02:19:22.181Z,2.13
2023-04-03T02:21:48.764Z,2.13
2023-04-03T02:24:15.462Z,2.13
2023-04-03T02:26:42.083Z,2.03
2023-04-03T02:29:08.656Z,2.85
2023-04-03T02:31:35.336Z,2.05
2023-04-03T02:34:01.968Z,2.13
2023-04-03T02:36:28.775Z,2.67
2023-04-03T02:38:56.437Z,2.47
2023-04-03T02:41:23.059Z,2.45
2023-04-03T02:43:49.709Z,2.95
2023-04-03T02:46:16.789Z,2.40
2023-04-03T02:48:43.527Z,2.42
2023-04-03T02:51:10.130Z,2.75
2023-04-03T02:53:36.708Z,2.70
2023-04-03T02:56:03.387Z,2.45
2023-04-03T02:58:29.961Z,2.42
2023-04-03T03:00:56.570Z,2.47
2023-04-03T03:03:23.242Z,3.13
2023-04-03T03:05:49.899Z,2.90
2023-04-03T03:08:16.603Z,2.33
2023-04-03T03:10:43.242Z,2.45
2023-04-03T03:13:09.854Z,2.63
2023-04-03T03:15:36.429Z,4.13
2023-04-03T03:18:03.340Z,4.28
2023-04-03T03:20:29.954Z,2.65
2023-04-03T03:22:56.569Z,2.30
2023-04-03T03:25:23.492Z,2.35
2023-04-03T03:27:50.118Z,2.45
2023-04-03T03:30:16.698Z,3.63
2023-04-03T03:32:43.353Z,3.17
2023-04-03T03:35:10.156Z,2.55
2023-04-03T03:37:36.877Z,2.28
2023-04-03T03:40:03.671Z,2.42
2023-04-03T03:42:30.572Z,2.35
2023-04-03T03:44:57.215Z,3.42
2023-04-03T03:47:23.979Z,2.05
2023-04-03T03:49:51.034Z,3.15
2023-04-03T03:52:17.664Z,2.33
2023-04-03T03:54:44.339Z,2.15
2023-04-03T03:57:11.049Z,2.30
2023-04-03T03:59:37.748Z,2.40
2023-04-03T04:02:04.706Z,2.42
2023-04-03T04:04:31.494Z,2.45
2023-04-03T04:06:58.197Z,3.05
2023-04-03T04:09:24.908Z,3.20
2023-04-03T04:11:51.507Z,2.92
2023-04-03T04:14:18.202Z,2.72
2023-04-03T04:16:44.824Z,2.95
2023-04-03T04:19:11.468Z,2.95
2023-04-03T04:21:38.223Z,2.90
2023-04-03T04:24:05.163Z,2.85
2023-04-03T04:26:31.899Z,2.80
2023-04-03T04:28:58.580Z,3.17
2023-04-03T04:31:25.497Z,3.20
2023-04-03T04:33:52.208Z,3.05
2023-04-03T04:36:18.903Z,2.83
2023-04-03T04:38:45.999Z,3.65
2023-04-03T04:41:12.850Z,2.78
2023-04-03T04:43:39.424Z,3.30
2023-04-03T04:46:08.658Z,2.80
2023-04-03T04:48:36.064Z,2.50
2023-04-03T04:51:02.964Z,2.95
2023-04-03T04:53:29.682Z,2.85
2023-04-03T04:55:56.424Z,2.53
2023-04-03T04:58:23.079Z,2.92
2023-04-03T05:00:49.656Z,2.60
2023-04-03T05:03:16.635Z,2.88
2023-04-03T05:05:43.231Z,2.80
2023-04-03T05:08:10.068Z,3.00
2023-04-03T05:10:36.652Z,3.20
2023-04-03T05:13:06.027Z,2.75
2023-04-03T05:15:32.780Z,2.42
2023-04-03T05:17:59.444Z,2.40
2023-04-03T05:20:26.397Z,3.10
2023-04-03T05:22:53.106Z,2.45
2023-04-03T05:25:19.739Z,2.97
2023-04-03T05:27:46.444Z,2.28
2023-04-03T05:30:13.449Z,2.28
2023-04-03T05:32:40.120Z,2.05
2023-04-03T05:35:08.385Z,2.20
2023-04-03T05:37:35.638Z,2.60
2023-04-03T05:40:03.214Z,2.13
2023-04-03T05:42:29.879Z,2.28
2023-04-03T05:44:56.714Z,2.17
2023-04-03T05:47:23.407Z,3.08
2023-04-03T05:49:50.364Z,2.63
2023-04-03T05:52:29.940Z,2.25
2023-04-03T05:54:57.406Z,1.83
2023-04-03T05:57:24.629Z,3.03
2023-04-03T05:59:51.317Z,2.20
2023-04-03T06:02:21.127Z,1.95
2023-04-03T06:04:48.917Z,2.13
2023-04-03T06:07:18.722Z,2.60
2023-04-03T06:09:45.449Z,2.55
2023-04-03T06:12:12.393Z,2.40
2023-04-03T06:14:39.016Z,2.25
2023-04-03T06:17:07.192Z,2.42
2023-04-03T06:19:34.265Z,2.72
2023-04-03T06:22:01.244Z,3.13
2023-04-03T06:24:28.216Z,2.83
2023-04-03T06:26:54.929Z,2.78
2023-04-03T06:29:21.738Z,2.78
2023-04-03T06:31:49.024Z,3.90
2023-04-03T06:34:16.855Z,3.50
2023-04-03T06:36:44.158Z,3.63
2023-04-03T06:39:15.532Z,3.15
2023-04-03T06:41:42.203Z,3.55
2023-04-03T06:44:11.949Z,3.25
2023-04-03T06:46:39.762Z,3.88
2023-04-03T06:49:08.787Z,4.10
2023-04-03T06:51:36.255Z,4.05
2023-04-03T06:54:04.278Z,4.22
2023-04-03T06:56:31.142Z,4.60
2023-04-03T06:58:58.757Z,4.72
2023-04-03T07:01:28.905Z,5.97
2023-04-03T07:03:56.478Z,4.93
2023-04-03T07:06:23.567Z,6.05
2023-04-03T07:08:50.393Z,6.63
2023-04-03T07:11:17.988Z,9.98
2023-04-03T07:13:44.735Z,8.27
2023-04-03T07:16:12.108Z,7.85
2023-04-03T07:18:38.745Z,8.52
2023-04-03T07:21:05.546Z,8.23
2023-04-03T07:23:32.343Z,9.48
2023-04-03T07:25:59.013Z,8.57
2023-04-03T07:28:26.888Z,10.13
2023-04-03T07:30:59.968Z,8.35
2023-04-03T07:33:27.223Z,9.70
2023-04-03T07:35:53.987Z,9.57
2023-04-03T07:38:20.728Z,10.13
2023-04-03T07:40:49.100Z,10.35
2023-04-03T07:43:17.133Z,8.30
2023-04-03T07:45:44.394Z,8.18
2023-04-03T07:48:12.595Z,5.80
2023-04-03T07:50:41.647Z,7.60
2023-04-03T07:53:08.875Z,4.72
2023-04-03T07:55:38.532Z,4.65
2023-04-03T07:58:05.867Z,5.93
2023-04-03T08:00:32.747Z,6.57
2023-04-03T08:02:59.444Z,5.40
2023-04-03T08:05:26.428Z,4.22
2023-04-03T08:07:53.122Z,4.90
2023-04-03T08:10:19.848Z,4.85
2023-04-03T08:12:49.985Z,6.40
2023-04-03T08:15:17.285Z,7.60
2023-04-03T08:17:43.852Z,6.68
2023-04-03T08:20:11.488Z,4.65
2023-04-03T08:22:38.212Z,6.72
2023-04-03T08:25:05.246Z,8.73
2023-04-03T08:27:32.588Z,6.68
2023-04-03T08:29:59.392Z,5.75
2023-04-03T08:32:26.694Z,5.50
2023-04-03T08:34:54.039Z,4.47
2023-04-03T08:37:20.806Z,4.57
2023-04-03T08:39:48.805Z,3.78
2023-04-03T08:42:35.146Z,3.88
2023-04-03T08:45:11.384Z,4.13
2023-04-03T08:47:41.824Z,5.45
2023-04-03T08:50:16.558Z,4.28
2023-04-03T08:52:48.857Z,4.55
2023-04-03T08:58:20.363Z,3.78
2023-04-03T09:01:19.964Z,4.47
2023-04-03T09:03:46.762Z,3.80
2023-04-03T09:06:25.231Z,4.15
2023-04-03T09:08:54.779Z,4.13
2023-04-03T09:11:40.047Z,3.47
2023-04-03T09:14:39.174Z,3.67
2023-04-03T09:17:15.899Z,3.75
2023-04-03T09:20:13.229Z,5.38
2023-04-03T09:22:49.702Z,3.67
2023-04-03T09:25:23.030Z,4.53
2023-04-03T09:27:50.679Z,3.75
2023-04-03T09:30:20.582Z,3.42
2023-04-03T09:32:50.049Z,4.47
2023-04-03T09:35:40.609Z,5.10
2023-04-03T09:38:14.282Z,3.83
2023-04-03T09:40:44.923Z,3.28
2023-04-03T09:43:32.044Z,3.65
2023-04-03T09:46:25.967Z,3.83
2023-04-03T09:49:07.558Z,4.25
2023-04-03T09:51:36.071Z,3.03
2023-04-03T09:54:26.449Z,3.92
2023-04-03T09:56:55.072Z,3.20
2023-04-03T09:59:22.355Z,3.40
2023-04-03T10:02:22.038Z,3.83
2023-04-03T10:04:53.075Z,3.55
2023-04-03T10:07:31.253Z,2.60
2023-04-03T10:10:04.730Z,3.25
2023-04-03T10:12:31.645Z,2.53
2023-04-03T10:15:01.585Z,2.67
2023-04-03T10:17:35.827Z,2.38
2023-04-03T10:20:17.438Z,3.50
2023-04-03T10:23:05.389Z,2.95
2023-04-03T10:25:41.099Z,2.60
2023-04-03T10:28:21.651Z,2.53
2023-04-03T10:31:13.274Z,2.35
2023-04-03T10:34:01.339Z,1.33
2023-04-03T10:36:43.815Z,2.10
2023-04-03T10:39:47.505Z,1.50
2023-04-03T10:45:19.987Z,1.55
2023-04-03T10:48:07.932Z,1.17
2023-04-03T10:51:20.841Z,1.88
2023-04-03T10:54:01.727Z,2.33
2023-04-03T10:56:39.304Z,2.05
2023-04-03T10:59:34.540Z,1.67
2023-04-03T11:02:08.602Z,1.63
2023-04-03T11:04:41.634Z,1.30
2023-04-03T11:07:18.618Z,1.65
2023-04-03T11:09:47.930Z,1.80
2023-04-03T11:12:22.059Z,1.92
2023-04-03T11:14:51.478Z,1.75
2023-04-03T11:17:23.960Z,1.92
2023-04-03T11:20:15.277Z,1.60
2023-04-03T11:22:50.314Z,1.95
2023-04-03T11:25:24.069Z,1.95
2023-04-03T11:28:05.420Z,1.73
2023-04-03T11:30:45.811Z,1.83
2023-04-03T11:33:30.867Z,1.88
2023-04-03T11:36:19.011Z,1.80
2023-04-03T11:38:56.234Z,2.13
2023-04-03T11:41:31.594Z,1.60
2023-04-03T11:44:05.686Z,1.65
2023-04-03T11:46:53.703Z,2.25
2023-04-03T11:50:02.174Z,1.95
2023-04-03T11:52:43.768Z,1.60
2023-04-03T11:55:23.052Z,1.50
2023-04-03T11:57:58.715Z,1.92
2023-04-03T12:00:54.993Z,1.88
2023-04-03T12:03:25.054Z,1.55
2023-04-03T12:06:08.120Z,1.95
2023-04-03T12:08:35.189Z,1.90
2023-04-03T12:11:11.395Z,2.00
2023-04-03T12:13:39.611Z,2.00
2023-04-03T12:16:08.298Z,1.92
2023-04-03T12:18:44.013Z,1.63
2023-04-03T12:21:13.553Z,2.08
2023-04-03T12:23:58.539Z,1.58
2023-04-03T12:26:35.409Z,2.35
2023-04-03T12:29:21.497Z,1.83
2023-04-03T12:32:07.204Z,2.00
2023-04-03T12:34:58.775Z,1.65
2023-04-03T12:37:47.166Z,1.80
2023-04-03T12:40:40.368Z,1.42
2023-04-03T12:43:24.610Z,1.55
2023-04-03T12:46:09.684Z,1.23
2023-04-03T12:48:45.456Z,1.88
2023-04-03T12:51:27.444Z,1.50
2023-04-03T12:54:01.273Z,1.30
2023-04-03T12:56:33.833Z,1.90
2023-04-03T12:59:27.760Z,1.80
2023-04-03T13:02:01.940Z,1.60
2023-04-03T13:04:31.322Z,1.27
2023-04-03T13:06:58.475Z,2.22
2023-04-03T13:09:28.839Z,1.95
2023-04-03T13:12:02.397Z,1.33
2023-04-03T13:14:32.998Z,1.67
2023-04-03T13:17:07.953Z,1.73
2023-04-03T13:19:34.530Z,1.70
2023-04-03T13:22:08.426Z,1.33
2023-04-03T13:24:38.759Z,1.38
2023-04-03T13:27:08.028Z,1.65
2023-04-03T13:29:37.885Z,1.10
2023-04-03T13:32:06.248Z,1.35
2023-04-03T13:34:46.565Z,1.33
2023-04-03T13:37:26.258Z,1.30
2023-04-03T13:39:59.228Z,1.48
2023-04-03T13:42:31.346Z,1.52
2023-04-03T13:45:15.880Z,1.60
2023-04-03T13:47:45.003Z,1.10
2023-04-03T13:50:21.941Z,1.00
2023-04-03T13:52:53.875Z,1.42
2023-04-03T13:58:01.385Z,1.17
2023-04-03T14:00:55.733Z,0.98
2023-04-03T14:03:27.124Z,1.33
2023-04-03T14:05:55.508Z,1.75
2023-04-03T14:08:29.450Z,1.30
2023-04-03T14:11:02.923Z,2.00
2023-04-03T14:13:33.477Z,1.38
2023-04-03T14:16:12.920Z,1.52
2023-04-03T14:18:42.556Z,1.25
2023-04-03T14:21:13.164Z,1.15
2023-04-03T14:23:40.169Z,1.52
2023-04-03T14:26:18.968Z,1.48
2023-04-03T14:28:47.926Z,1.60
2023-04-03T14:31:16.877Z,1.00
2023-04-03T14:33:43.568Z,1.00
2023-04-03T14:36:17.615Z,1.60
2023-04-03T14:38:45.692Z,1.45
2023-04-03T14:41:18.175Z,1.20
2023-04-03T14:43:46.703Z,1.25
2023-04-03T14:46:19.552Z,1.00
2023-04-03T14:48:46.784Z,1.65
2023-04-03T14:51:14.885Z,1.23
2023-04-03T14:53:44.628Z,1.00
2023-04-03T14:56:19.022Z,1.00
2023-04-03T14:58:50.347Z,1.20
2023-04-03T15:01:21.652Z,1.52
2023-04-03T15:03:57.449Z,1.33
2023-04-03T15:06:26.651Z,1.40
2023-04-03T15:08:53.681Z,1.00
2023-04-03T15:11:21.219Z,1.17
2023-04-03T15:13:48.417Z,1.95
2023-04-03T15:16:23.121Z,1.25
2023-04-03T15:18:50.158Z,1.10
2023-04-03T15:21:17.673Z,1.42
2023-04-03T15:23:53.187Z,1.23
2023-04-03T15:26:19.922Z,0.95
2023-04-03T15:28:46.648Z,1.20
2023-04-03T15:31:13.482Z,1.10
2023-04-03T15:33:40.541Z,1.13
2023-04-03T15:36:16.778Z,1.13
2023-04-03T15:38:56.630Z,1.15
2023-04-03T15:41:23.482Z,1.35
2023-04-03T15:43:50.075Z,1.27
2023-04-03T15:46:17.071Z,1.92
2023-04-03T15:48:43.939Z,1.20
2023-04-03T15:51:10.840Z,1.63
2023-04-03T15:53:44.377Z,1.08
2023-04-03T15:56:12.888Z,1.30
2023-04-03T15:58:39.526Z,1.48
2023-04-03T16:01:08.122Z,1.25
2023-04-03T16:03:35.190Z,1.20
2023-04-03T16:06:02.694Z,0.90
2023-04-03T16:08:29.397Z,1.33
2023-04-03T16:10:56.170Z,1.23
2023-04-03T16:13:22.858Z,0.98
2023-04-03T16:15:50.356Z,1.10
2023-04-03T16:18:18.766Z,1.40
2023-04-03T16:20:46.666Z,1.02
2023-04-03T16:23:13.435Z,1.20
2023-04-03T16:25:40.804Z,1.30
2023-04-03T16:28:07.619Z,1.20
2023-04-03T16:30:34.368Z,1.10
2023-04-03T16:33:01.049Z,1.35
2023-04-03T16:35:28.311Z,1.27
2023-04-03T16:37:54.921Z,1.20
2023-04-03T16:40:21.589Z,1.33
2023-04-03T16:42:48.235Z,1.17
2023-04-03T16:45:15.053Z,0.95
2023-04-03T16:47:41.846Z,0.93
2023-04-03T16:50:09.378Z,1.20
2023-04-03T16:52:36.208Z,0.88
2023-04-03T16:55:03.370Z,0.82
2023-04-03T16:57:30.010Z,1.70
2023-04-03T16:59:56.768Z,1.23
2023-04-03T17:02:27.852Z,1.10
2023-04-03T17:04:54.951Z,1.20
2023-04-03T17:07:22.940Z,1.02
2023-04-03T17:09:49.906Z,0.85
2023-04-03T17:12:17.118Z,1.00
2023-04-03T17:14:44.034Z,1.73
2023-04-03T17:17:11.063Z,1.85
2023-04-03T17:19:38.902Z,1.05
2023-04-03T17:22:05.707Z,2.42
2023-04-03T17:24:32.321Z,1.77
2023-04-03T17:26:58.954Z,1.27
2023-04-03T17:29:25.704Z,1.05
2023-04-03T17:31:52.328Z,1.33
2023-04-03T17:34:19.049Z,1.40
2023-04-03T17:36:45.752Z,0.93
2023-04-03T17:39:12.660Z,1.23
2023-04-03T17:41:39.500Z,1.90
2023-04-03T17:44:06.663Z,2.08
2023-04-03T17:46:35.223Z,4.45
2023-04-03T17:49:03.355Z,2.22
2023-04-03T17:51:30.411Z,4.47
2023-04-03T17:53:57.052Z,2.15
2023-04-03T17:56:27.159Z,2.35
2023-04-03T17:58:55.722Z,5.10
2023-04-03T18:01:24.041Z,2.20
2023-04-03T18:03:53.440Z,2.42
2023-04-03T18:06:22.128Z,2.33
2023-04-03T18:08:51.238Z,2.13
2023-04-03T18:11:18.890Z,1.73
2023-04-03T18:13:46.358Z,1.88
2023-04-03T18:16:14.219Z,1.92
2023-04-03T18:18:41.296Z,1.83
2023-04-03T18:21:13.857Z,1.48
2023-04-03T18:23:45.002Z,1.70
2023-04-03T18:26:16.540Z,1.55
2023-04-03T18:28:53.832Z,1.75
2023-04-03T18:31:21.403Z,1.75
2023-04-03T18:33:48.034Z,1.63
2023-04-03T18:38:46.352Z,1.70
2023-04-03T18:41:13.531Z,2.47
2023-04-03T18:43:40.438Z,1.80
2023-04-03T18:46:07.344Z,2.22
2023-04-03T18:48:35.444Z,3.15
2023-04-03T18:51:02.386Z,2.28
2023-04-03T18:53:29.017Z,2.08
2023-04-03T18:55:55.749Z,2.72
2023-04-03T18:58:22.465Z,2.97
2023-04-03T19:00:49.209Z,2.15
2023-04-03T19:03:16.007Z,2.13
2023-04-03T19:05:43.144Z,2.17
2023-04-03T19:08:09.976Z,2.08
2023-04-03T19:10:37.009Z,2.60
2023-04-03T19:13:03.716Z,2.70
2023-04-03T19:15:30.449Z,2.05
2023-04-03T19:17:57.081Z,2.40
2023-04-03T19:20:23.915Z,2.22
2023-04-03T19:22:50.661Z,2.10
2023-04-03T19:25:17.418Z,2.90
2023-04-03T19:27:44.314Z,3.58
2023-04-03T19:30:12.220Z,1.63
2023-04-03T19:32:38.990Z,2.50
2023-04-03T19:35:06.320Z,2.83
2023-04-03T19:37:33.422Z,1.98
2023-04-03T19:40:00.439Z,3.10
2023-04-03T19:42:31.377Z,1.85
2023-04-03T19:44:58.755Z,2.53
2023-04-03T19:47:26.122Z,2.30
2023-04-03T19:49:52.772Z,1.83
2023-04-03T19:52:19.477Z,2.35
2023-04-03T19:54:46.139Z,3.35
2023-04-03T19:57:13.188Z,2.33
2023-04-03T19:59:39.937Z,1.95
2023-04-03T20:02:07.017Z,1.98
2023-04-03T20:04:33.896Z,3.10
2023-04-03T20:07:02.012Z,3.00
2023-04-03T20:09:28.894Z,2.65
2023-04-03T20:11:57.954Z,2.03
2023-04-03T20:14:24.617Z,2.80
2023-04-03T20:16:51.226Z,2.38
2023-04-03T20:19:17.897Z,2.50
2023-04-03T20:21:45.247Z,3.25
2023-04-03T20:24:13.884Z,2.35
2023-04-03T20:26:46.221Z,1.75
2023-04-03T20:29:14.701Z,2.05
2023-04-03T20:31:42.205Z,2.25
2023-04-03T20:34:09.449Z,2.65
2023-04-03T20:36:39.441Z,2.10
2023-04-03T20:39:06.270Z,2.20
2023-04-03T20:41:35.540Z,2.13
2023-04-03T20:44:02.494Z,2.03
2023-04-03T20:46:42.210Z,2.13
2023-04-03T20:49:19.318Z,2.30
2023-04-03T20:51:47.103Z,1.98
2023-04-03T20:54:14.801Z,1.73
2023-04-03T20:56:41.752Z,2.40
2023-04-03T20:59:10.347Z,1.83
2023-04-03T21:01:37.132Z,1.90
2023-04-03T21:04:30.451Z,2.15
2023-04-03T21:07:34.607Z,1.70
2023-04-03T21:10:38.926Z,1.85
2023-04-03T21:13:43.112Z,1.98
2023-04-03T21:16:09.691Z,1.60
2023-04-03T21:18:39.104Z,2.10
2023-04-03T21:21:05.937Z,2.28
2023-04-03T21:23:33.174Z,1.73
2023-04-03T21:26:00.644Z,1.60
2023-04-03T21:28:27.480Z,1.98
2023-04-03T21:30:54.229Z,2.75
2023-04-03T21:33:21.228Z,1.48
2023-04-03T21:35:48.041Z,1.58
2023-04-03T21:38:15.556Z,1.98
2023-04-03T21:40:46.560Z,1.50
2023-04-03T21:43:13.589Z,1.75
2023-04-03T21:45:40.770Z,1.63
2023-04-03T21:48:10.199Z,1.85
2023-04-03T21:50:37.253Z,2.00
2023-04-03T21:53:04.011Z,2.10
2023-04-03T21:55:30.600Z,1.40
2023-04-03T21:57:58.175Z,2.13
2023-04-03T22:00:25.068Z,1.63
2023-04-03T22:02:57.814Z,1.75
2023-04-03T22:05:35.955Z,2.20
2023-04-03T22:08:02.770Z,1.92
2023-04-03T22:10:29.588Z,2.53
2023-04-03T22:12:56.279Z,1.48
2023-04-03T22:15:23.110Z,1.50
2023-04-03T22:17:49.769Z,1.67
2023-04-03T22:20:16.893Z,1.45
2023-04-03T22:22:43.478Z,1.63
2023-04-03T22:25:10.559Z,1.52
2023-04-03T22:27:37.412Z,2.20
2023-04-03T22:30:04.481Z,1.50
2023-04-03T22:32:31.178Z,2.83
2023-04-03T22:35:00.210Z,1.80
2023-04-03T22:37:27.560Z,1.90
2023-04-03T22:39:54.161Z,1.95
2023-04-03T22:42:20.724Z,2.33
2023-04-03T22:44:47.651Z,2.45
2023-04-03T22:47:14.261Z,2.00
2023-04-03T22:49:41.237Z,1.80
2023-04-03T22:52:07.801Z,2.30
2023-04-03T22:54:34.391Z,1.70
2023-04-03T22:57:01.010Z,1.60
2023-04-03T22:59:27.716Z,1.92
2023-04-03T23:01:54.462Z,1.63
2023-04-03T23:04:21.108Z,1.80
2023-04-03T23:06:47.862Z,1.80
2023-04-03T23:09:14.524Z,1.48
2023-04-03T23:11:41.316Z,1.75
2023-04-03T23:14:07.987Z,1.85
2023-04-03T23:16:34.657Z,1.63
2023-04-03T23:19:01.407Z,1.65
2023-04-03T23:21:28.163Z,2.05
2023-04-03T23:23:54.910Z,2.55
2023-04-03T23:26:21.468Z,2.75
2023-04-03T23:28:48.544Z,1.40
2023-04-03T23:31:15.599Z,1.83
2023-04-03T23:33:44.007Z,1.90
2023-04-03T23:36:12.880Z,1.60
2023-04-03T23:38:39.624Z,1.70
2023-04-03T23:41:06.641Z,1.95
2023-04-03T23:43:34.009Z,1.42
2023-04-03T23:46:00.701Z,1.73
2023-04-03T23:48:27.345Z,2.22
2023-04-03T23:50:59.787Z,1.48
2023-04-03T23:53:26.394Z,1.63
2023-04-03T23:55:53.119Z,1.35
2023-04-03T23:58:19.715Z,1.40
